Wetterdaten: Woche 27.08.18 - 02.09.18 (KW35)
Datum Zeit Temperatur Luftfeuchte Luftdruck Niederschlag Windrichtung Sonnenschein Solar Wind
27.08.2018 00:00 8,9 C 81 % 1014,8 hPa 0,0 l/m N 0,00 h 0 W/m 0,0 km/h (0 Bft)
27.08.2018 01:00 8,3 C 84 % 1014,7 hPa 0,0 l/m N 0,00 h 0 W/m 0,0 km/h (0 Bft)
27.08.2018 02:00 7,3 C 87 % 1014,7 hPa 0,0 l/m N 0,00 h 0 W/m 0,0 km/h (0 Bft)
27.08.2018 03:00 7,5 C 89 % 1014,8 hPa 0,0 l/m N 0,00 h 0 W/m 0,0 km/h (0 Bft)
27.08.2018 04:00 8,3 C 88 % 1014,8 hPa 0,0 l/m N 0,00 h 0 W/m 0,0 km/h (0 Bft)
27.08.2018 05:00 8,6 C 88 % 1014,7 hPa 0,0 l/m N 0,00 h 0 W/m 0,0 km/h (0 Bft)
27.08.2018 06:00 8,8 C 89 % 1014,7 hPa 0,0 l/m N 0,00 h 8 W/m 0,0 km/h (0 Bft)
27.08.2018 07:00 9,8 C 86 % 1014,8 hPa 0,0 l/m N 0,00 h 47 W/m 0,0 km/h (0 Bft)
27.08.2018 08:00 11,9 C 83 % 1014,7 hPa 0,0 l/m SO 0,17 h 159 W/m 3,2 km/h (1 Bft)
27.08.2018 09:00 14,8 C 74 % 1014,7 hPa 0,0 l/m S-SW 0,67 h 343 W/m 12,5 km/h (3 Bft)
27.08.2018 10:00 17,1 C 66 % 1014,8 hPa 0,0 l/m SW 0,42 h 354 W/m 13,8 km/h (3 Bft)
27.08.2018 11:00 20,0 C 49 % 1014,5 hPa 0,0 l/m W-SW 1,00 h 708 W/m 20,9 km/h (4 Bft)
27.08.2018 12:00 21,6 C 46 % 1014,4 hPa 0,0 l/m W-SW 0,92 h 741 W/m 20,2 km/h (4 Bft)
27.08.2018 13:00 22,2 C 45 % 1014,3 hPa 0,0 l/m W-SW 0,92 h 563 W/m 23,9 km/h (4 Bft)
27.08.2018 14:00 22,7 C 47 % 1014,1 hPa 0,0 l/m W-SW 0,75 h 551 W/m 21,7 km/h (4 Bft)
27.08.2018 15:00 23,3 C 45 % 1014,0 hPa 0,0 l/m W-SW 0,42 h 436 W/m 23,9 km/h (4 Bft)
27.08.2018 16:00 23,3 C 47 % 1013,9 hPa 0,0 l/m W-SW 0,58 h 343 W/m 18,6 km/h (3 Bft)
27.08.2018 17:00 23,5 C 48 % 1014,0 hPa 0,0 l/m W-SW 0,50 h 229 W/m 17,4 km/h (3 Bft)
27.08.2018 18:00 23,0 C 50 % 1014,1 hPa 0,0 l/m W-SW 0,50 h 161 W/m 15,8 km/h (3 Bft)
27.08.2018 19:00 21,8 C 54 % 1014,5 hPa 0,0 l/m W-SW 0,08 h 36 W/m 10,8 km/h (2 Bft)
27.08.2018 20:00 20,7 C 59 % 1015,1 hPa 0,0 l/m W-SW 0,08 h 7 W/m 5,5 km/h (1 Bft)
27.08.2018 21:00 20,2 C 61 % 1015,7 hPa 0,0 l/m W-SW 0,00 h 0 W/m 8,4 km/h (2 Bft)
27.08.2018 22:00 19,8 C 63 % 1016,0 hPa 0,0 l/m N 0,00 h 0 W/m 2,5 km/h (1 Bft)
27.08.2018 23:00 19,4 C 65 % 1016,2 hPa 0,0 l/m N 0,00 h 0 W/m 1,6 km/h (1 Bft)
28.08.2018 00:00 18,7 C 70 % 1016,4 hPa 0,0 l/m N 0,00 h 0 W/m 0,1 km/h (0 Bft)
28.08.2018 01:00 18,2 C 73 % 1016,5 hPa 0,0 l/m N 0,00 h 0 W/m 0,0 km/h (0 Bft)
28.08.2018 02:00 16,8 C 81 % 1016,6 hPa 0,0 l/m N 0,00 h 0 W/m 0,0 km/h (0 Bft)
28.08.2018 03:00 16,0 C 84 % 1016,7 hPa 0,0 l/m N 0,00 h 0 W/m 0,0 km/h (0 Bft)
28.08.2018 04:00 15,4 C 86 % 1016,6 hPa 0,0 l/m N 0,00 h 0 W/m 0,0 km/h (0 Bft)
28.08.2018 05:00 14,9 C 89 % 1016,6 hPa 0,0 l/m N 0,00 h 0 W/m 0,0 km/h (0 Bft)
28.08.2018 06:00 14,4 C 91 % 1016,9 hPa 0,0 l/m N 0,08 h 10 W/m 0,0 km/h (0 Bft)
28.08.2018 07:00 14,7 C 91 % 1016,9 hPa 0,0 l/m N 0,17 h 73 W/m 0,0 km/h (0 Bft)
28.08.2018 08:00 16,7 C 86 % 1017,1 hPa 0,0 l/m N-NW 0,83 h 208 W/m 6,3 km/h (2 Bft)
28.08.2018 09:00 18,2 C 81 % 1017,0 hPa 0,0 l/m NO 1,00 h 369 W/m 7,5 km/h (2 Bft)
28.08.2018 10:00 19,9 C 75 % 1016,8 hPa 0,0 l/m O-NO 0,92 h 505 W/m 10,6 km/h (2 Bft)
28.08.2018 11:00 21,3 C 70 % 1016,6 hPa 0,0 l/m O-NO 0,75 h 603 W/m 8,6 km/h (2 Bft)
28.08.2018 12:00 22,7 C 64 % 1016,1 hPa 0,0 l/m O 0,75 h 633 W/m 8,1 km/h (2 Bft)
28.08.2018 13:00 24,5 C 57 % 1015,7 hPa 0,0 l/m O 1,00 h 779 W/m 9,1 km/h (2 Bft)
28.08.2018 14:00 24,9 C 55 % 1015,1 hPa 0,0 l/m NO 0,67 h 527 W/m 8,9 km/h (2 Bft)
28.08.2018 15:00 26,0 C 49 % 1014,7 hPa 0,0 l/m O-SO 1,00 h 648 W/m 6,3 km/h (2 Bft)
28.08.2018 16:00 26,5 C 48 % 1014,2 hPa 0,0 l/m O-NO 1,00 h 514 W/m 11,5 km/h (2 Bft)
28.08.2018 17:00 26,2 C 48 % 1013,8 hPa 0,0 l/m NO 1,00 h 353 W/m 8,6 km/h (2 Bft)
28.08.2018 18:00 25,3 C 51 % 1013,7 hPa 0,0 l/m O-NO 1,00 h 181 W/m 11,3 km/h (2 Bft)
28.08.2018 19:00 23,5 C 56 % 1013,5 hPa 0,0 l/m NO 0,00 h 42 W/m 5,2 km/h (1 Bft)
28.08.2018 20:00 20,2 C 69 % 1013,9 hPa 0,0 l/m N 0,08 h 7 W/m 0,0 km/h (0 Bft)
28.08.2018 21:00 17,8 C 78 % 1014,0 hPa 0,0 l/m N 0,00 h 0 W/m 0,0 km/h (0 Bft)
28.08.2018 22:00 16,7 C 83 % 1013,6 hPa 0,0 l/m N 0,00 h 0 W/m 0,0 km/h (0 Bft)
28.08.2018 23:00 16,0 C 84 % 1013,3 hPa 0,0 l/m N 0,00 h 0 W/m 0,0 km/h (0 Bft)
29.08.2018 00:00 15,7 C 86 % 1013,1 hPa 0,0 l/m N 0,00 h 0 W/m 0,9 km/h (0 Bft)
29.08.2018 01:00 15,4 C 87 % 1012,6 hPa 0,0 l/m N 0,00 h 0 W/m 1,3 km/h (1 Bft)
29.08.2018 02:00 14,9 C 89 % 1012,6 hPa 0,0 l/m N 0,00 h 0 W/m 1,6 km/h (1 Bft)
29.08.2018 03:00 14,3 C 91 % 1012,6 hPa 0,0 l/m N 0,00 h 0 W/m 2,0 km/h (1 Bft)
29.08.2018 04:00 13,4 C 92 % 1012,5 hPa 0,0 l/m N 0,00 h 0 W/m 0,0 km/h (0 Bft)
29.08.2018 05:00 12,6 C 94 % 1012,4 hPa 0,0 l/m N 0,00 h 0 W/m 0,0 km/h (0 Bft)
29.08.2018 06:00 11,9 C 95 % 1012,4 hPa 0,0 l/m N 0,08 h 12 W/m 0,0 km/h (0 Bft)
29.08.2018 07:00 12,4 C 96 % 1012,6 hPa 0,0 l/m N 0,67 h 90 W/m 0,0 km/h (0 Bft)
29.08.2018 08:00 13,8 C 92 % 1012,7 hPa 0,0 l/m N 0,58 h 181 W/m 0,0 km/h (0 Bft)
29.08.2018 09:00 15,9 C 88 % 1012,5 hPa 0,0 l/m NO 0,17 h 220 W/m 3,1 km/h (1 Bft)
29.08.2018 10:00 18,7 C 83 % 1012,5 hPa 0,0 l/m O 0,42 h 301 W/m 8,2 km/h (2 Bft)
29.08.2018 11:00 21,7 C 73 % 1012,1 hPa 0,0 l/m S-SW 1,00 h 668 W/m 10,7 km/h (2 Bft)
29.08.2018 12:00 25,1 C 61 % 1011,2 hPa 0,0 l/m S-SW 1,00 h 747 W/m 11,8 km/h (2 Bft)
29.08.2018 13:00 27,3 C 51 % 1010,7 hPa 0,0 l/m W 1,00 h 748 W/m 25,6 km/h (4 Bft)
29.08.2018 14:00 28,1 C 49 % 1010,2 hPa 0,0 l/m W-SW 1,00 h 731 W/m 31,0 km/h (5 Bft)
29.08.2018 15:00 28,1 C 49 % 1009,9 hPa 0,0 l/m W 0,58 h 479 W/m 25,1 km/h (4 Bft)
29.08.2018 16:00 29,0 C 48 % 1009,6 hPa 0,0 l/m W 0,83 h 488 W/m 19,8 km/h (4 Bft)
29.08.2018 17:00 27,3 C 54 % 1009,8 hPa 0,0 l/m N 0,25 h 226 W/m 19,7 km/h (3 Bft)
29.08.2018 18:00 25,8 C 58 % 1010,0 hPa 0,0 l/m N-NW 0,00 h 60 W/m 16,6 km/h (3 Bft)
29.08.2018 19:00 23,6 C 61 % 1011,4 hPa 0,0 l/m W-SW 0,00 h 8 W/m 27,2 km/h (4 Bft)
29.08.2018 20:00 19,4 C 82 % 1012,5 hPa 0,8 l/m W-SW 0,00 h 0 W/m 13,5 km/h (3 Bft)
29.08.2018 21:00 17,7 C 94 % 1013,6 hPa 2,8 l/m SW 0,00 h 0 W/m 13,0 km/h (3 Bft)
29.08.2018 22:00 16,9 C 96 % 1013,5 hPa 1,2 l/m SW 0,00 h 0 W/m 16,8 km/h (3 Bft)
29.08.2018 23:00 16,6 C 97 % 1013,9 hPa 0,2 l/m SW 0,00 h 0 W/m 14,4 km/h (3 Bft)
30.08.2018 00:00 16,3 C 98 % 1014,0 hPa 0,0 l/m SW 0,00 h 0 W/m 12,5 km/h (3 Bft)
30.08.2018 01:00 16,2 C 98 % 1014,0 hPa 0,0 l/m W-SW 0,00 h 0 W/m 11,9 km/h (2 Bft)
30.08.2018 02:00 16,1 C 97 % 1014,0 hPa 0,0 l/m W-SW 0,00 h 0 W/m 16,1 km/h (3 Bft)
30.08.2018 03:00 16,1 C 96 % 1014,4 hPa 0,8 l/m W-SW 0,00 h 0 W/m 14,8 km/h (3 Bft)
30.08.2018 04:00 15,9 C 97 % 1014,6 hPa 0,0 l/m W 0,00 h 0 W/m 8,6 km/h (2 Bft)
30.08.2018 05:00 15,8 C 97 % 1014,8 hPa 0,2 l/m W 0,00 h 0 W/m 5,4 km/h (1 Bft)
30.08.2018 06:00 15,5 C 97 % 1015,0 hPa 0,0 l/m W 0,00 h 6 W/m 4,1 km/h (1 Bft)
30.08.2018 07:00 15,0 C 97 % 1015,4 hPa 0,0 l/m W 0,00 h 32 W/m 6,4 km/h (2 Bft)
30.08.2018 08:00 15,3 C 96 % 1015,8 hPa 0,0 l/m N 0,00 h 95 W/m 2,9 km/h (1 Bft)
30.08.2018 09:00 15,4 C 92 % 1016,2 hPa 0,0 l/m W-NW 0,08 h 177 W/m 6,6 km/h (2 Bft)
30.08.2018 10:00 16,9 C 83 % 1016,7 hPa 0,0 l/m NW 0,50 h 392 W/m 10,9 km/h (2 Bft)
30.08.2018 11:00 17,5 C 79 % 1016,8 hPa 0,0 l/m NW 0,17 h 320 W/m 10,7 km/h (2 Bft)
30.08.2018 12:00 17,7 C 74 % 1016,9 hPa 0,0 l/m N 0,00 h 185 W/m 9,3 km/h (2 Bft)
30.08.2018 13:00 18,0 C 72 % 1016,9 hPa 0,0 l/m N-NW 0,00 h 238 W/m 6,6 km/h (2 Bft)
30.08.2018 14:00 19,5 C 66 % 1017,0 hPa 0,0 l/m NW 0,58 h 441 W/m 7,4 km/h (2 Bft)
30.08.2018 15:00 19,6 C 66 % 1016,9 hPa 0,0 l/m N-NW 0,08 h 269 W/m 6,2 km/h (2 Bft)
30.08.2018 16:00 19,1 C 67 % 1016,8 hPa 0,0 l/m N 0,00 h 156 W/m 1,2 km/h (1 Bft)
30.08.2018 17:00 18,7 C 74 % 1017,1 hPa 0,0 l/m SW 0,08 h 174 W/m 9,1 km/h (2 Bft)
30.08.2018 18:00 18,3 C 78 % 1017,2 hPa 0,0 l/m S-SW 0,50 h 157 W/m 10,8 km/h (2 Bft)
30.08.2018 19:00 17,1 C 83 % 1017,3 hPa 0,0 l/m S-SW 0,00 h 24 W/m 5,6 km/h (1 Bft)
30.08.2018 20:00 15,6 C 89 % 1017,5 hPa 0,0 l/m N 0,00 h 5 W/m 0,0 km/h (0 Bft)
30.08.2018 21:00 14,5 C 93 % 1017,7 hPa 0,0 l/m N 0,00 h 0 W/m 0,0 km/h (0 Bft)
30.08.2018 22:00 14,1 C 94 % 1017,8 hPa 0,0 l/m N 0,00 h 0 W/m 0,0 km/h (0 Bft)
30.08.2018 23:00 13,8 C 96 % 1017,5 hPa 0,0 l/m SW 0,00 h 0 W/m 1,2 km/h (1 Bft)
31.08.2018 00:00 13,8 C 96 % 1017,2 hPa 0,0 l/m N 0,00 h 0 W/m 0,0 km/h (0 Bft)
31.08.2018 01:00 13,8 C 96 % 1016,9 hPa 0,0 l/m N 0,00 h 0 W/m 0,1 km/h (0 Bft)
31.08.2018 02:00 13,7 C 96 % 1016,6 hPa 0,0 l/m SW 0,00 h 0 W/m 2,5 km/h (1 Bft)
31.08.2018 03:00 13,7 C 94 % 1016,3 hPa 0,0 l/m W-SW 0,00 h 0 W/m 5,2 km/h (1 Bft)
31.08.2018 04:00 13,7 C 89 % 1015,9 hPa 0,0 l/m N 0,00 h 0 W/m 10,1 km/h (2 Bft)
31.08.2018 05:00 13,6 C 87 % 1016,0 hPa 0,0 l/m N 0,00 h 0 W/m 3,9 km/h (1 Bft)
31.08.2018 06:00 13,5 C 87 % 1016,1 hPa 0,0 l/m N-NO 0,00 h 0 W/m 2,5 km/h (1 Bft)
31.08.2018 07:00 13,2 C 90 % 1015,8 hPa 0,0 l/m NO 0,00 h 16 W/m 2,1 km/h (1 Bft)
31.08.2018 08:00 13,3 C 91 % 1015,4 hPa 0,0 l/m NO 0,00 h 36 W/m 11,3 km/h (2 Bft)
31.08.2018 09:00 13,9 C 90 % 1015,8 hPa 0,0 l/m NO 0,00 h 75 W/m 10,1 km/h (2 Bft)
31.08.2018 10:00 14,4 C 89 % 1015,9 hPa 0,0 l/m NO 0,00 h 117 W/m 8,3 km/h (2 Bft)
31.08.2018 11:00 14,7 C 89 % 1016,2 hPa 0,2 l/m O 0,00 h 122 W/m 9,7 km/h (2 Bft)
31.08.2018 12:00 14,5 C 92 % 1016,2 hPa 0,6 l/m O-NO 0,00 h 110 W/m 7,4 km/h (2 Bft)
31.08.2018 13:00 14,5 C 95 % 1016,3 hPa 0,6 l/m O-NO 0,00 h 149 W/m 10,1 km/h (2 Bft)
31.08.2018 14:00 14,8 C 95 % 1016,0 hPa 0,0 l/m O 0,00 h 175 W/m 12,5 km/h (3 Bft)
31.08.2018 15:00 14,9 C 93 % 1016,1 hPa 0,0 l/m O-NO 0,00 h 151 W/m 12,8 km/h (3 Bft)
31.08.2018 16:00 14,9 C 93 % 1016,2 hPa 0,2 l/m NO 0,00 h 177 W/m 11,1 km/h (2 Bft)
31.08.2018 17:00 15,0 C 90 % 1016,3 hPa 0,0 l/m O-NO 0,00 h 112 W/m 15,3 km/h (3 Bft)
31.08.2018 18:00 14,9 C 89 % 1016,5 hPa 0,0 l/m O-NO 0,00 h 54 W/m 15,2 km/h (3 Bft)
31.08.2018 19:00 14,4 C 89 % 1017,0 hPa 0,2 l/m O 0,00 h 9 W/m 7,9 km/h (2 Bft)
31.08.2018 20:00 13,8 C 92 % 1017,6 hPa 1,0 l/m N 0,00 h 0 W/m 0,0 km/h (0 Bft)
31.08.2018 21:00 13,3 C 95 % 1018,2 hPa 1,0 l/m N 0,00 h 0 W/m 1,9 km/h (1 Bft)
31.08.2018 22:00 12,8 C 96 % 1018,4 hPa 0,4 l/m N 0,00 h 0 W/m 2,1 km/h (1 Bft)
31.08.2018 23:00 12,5 C 96 % 1018,6 hPa 0,4 l/m N 0,00 h 0 W/m 0,0 km/h (0 Bft)
01.09.2018 00:00 12,3 C 97 % 1018,4 hPa 0,0 l/m N 0,00 h 0 W/m 1,6 km/h (1 Bft)
01.09.2018 01:00 12,3 C 98 % 1018,2 hPa 0,0 l/m N 0,00 h 0 W/m 0,0 km/h (0 Bft)
01.09.2018 02:00 12,6 C 98 % 1018,0 hPa 0,4 l/m NO 0,00 h 0 W/m 6,4 km/h (2 Bft)
01.09.2018 03:00 12,6 C 98 % 1018,2 hPa 0,0 l/m NO 0,00 h 0 W/m 6,6 km/h (2 Bft)
01.09.2018 04:00 12,4 C 98 % 1018,2 hPa 0,2 l/m N-NO 0,00 h 0 W/m 11,8 km/h (2 Bft)
01.09.2018 05:00 12,4 C 98 % 1018,2 hPa 0,0 l/m N-NO 0,00 h 0 W/m 7,4 km/h (2 Bft)
01.09.2018 06:00 12,2 C 98 % 1018,3 hPa 0,0 l/m N-NO 0,00 h 6 W/m 8,8 km/h (2 Bft)
01.09.2018 07:00 12,1 C 98 % 1018,5 hPa 0,0 l/m N-NO 0,00 h 22 W/m 9,8 km/h (2 Bft)
01.09.2018 08:00 12,3 C 97 % 1018,8 hPa 0,0 l/m N-NO 0,00 h 59 W/m 11,2 km/h (2 Bft)
01.09.2018 09:00 12,5 C 96 % 1019,4 hPa 0,0 l/m N-NO 0,00 h 59 W/m 11,4 km/h (2 Bft)
01.09.2018 10:00 12,6 C 95 % 1019,9 hPa 0,2 l/m N-NO 0,00 h 124 W/m 12,4 km/h (3 Bft)
01.09.2018 11:00 13,5 C 91 % 1020,2 hPa 0,0 l/m NO 0,00 h 196 W/m 15,4 km/h (3 Bft)
01.09.2018 12:00 13,7 C 86 % 1020,3 hPa 0,0 l/m N-NO 0,00 h 227 W/m 14,2 km/h (3 Bft)
01.09.2018 13:00 14,6 C 78 % 1020,5 hPa 0,0 l/m NO 0,00 h 215 W/m 14,8 km/h (3 Bft)
01.09.2018 14:00 15,1 C 71 % 1020,6 hPa 0,0 l/m O-NO 0,00 h 225 W/m 19,4 km/h (3 Bft)
01.09.2018 15:00 15,0 C 69 % 1020,7 hPa 0,0 l/m NO 0,00 h 156 W/m 14,2 km/h (3 Bft)
01.09.2018 16:00 15,2 C 68 % 1020,7 hPa 0,0 l/m NO 0,00 h 113 W/m 9,4 km/h (2 Bft)
01.09.2018 17:00 14,7 C 76 % 1020,9 hPa 0,0 l/m O-NO 0,00 h 78 W/m 7,1 km/h (2 Bft)
01.09.2018 18:00 14,0 C 83 % 1021,1 hPa 0,0 l/m O-SO 0,00 h 39 W/m 5,1 km/h (1 Bft)
01.09.2018 19:00 13,4 C 86 % 1021,3 hPa 0,0 l/m O-SO 0,00 h 10 W/m 3,5 km/h (1 Bft)
01.09.2018 20:00 12,7 C 90 % 1021,6 hPa 0,0 l/m SO 0,00 h 0 W/m 5,3 km/h (1 Bft)
01.09.2018 21:00 12,2 C 92 % 1021,9 hPa 0,0 l/m SO 0,00 h 0 W/m 2,3 km/h (1 Bft)
01.09.2018 22:00 11,9 C 92 % 1022,0 hPa 0,0 l/m N 0,00 h 0 W/m 0,0 km/h (0 Bft)
01.09.2018 23:00 11,8 C 93 % 1022,0 hPa 0,0 l/m N 0,00 h 0 W/m 0,0 km/h (0 Bft)
02.09.2018 00:00 11,6 C 93 % 1021,6 hPa 0,0 l/m N 0,00 h 0 W/m 0,0 km/h (0 Bft)
02.09.2018 01:00 11,6 C 94 % 1021,1 hPa 0,0 l/m N 0,00 h 0 W/m 0,0 km/h (0 Bft)
02.09.2018 02:00 11,7 C 92 % 1020,8 hPa 0,0 l/m N 0,00 h 0 W/m 0,0 km/h (0 Bft)
02.09.2018 03:00 11,6 C 94 % 1020,5 hPa 0,6 l/m N 0,00 h 0 W/m 0,0 km/h (0 Bft)
02.09.2018 04:00 11,4 C 96 % 1020,0 hPa 0,6 l/m N 0,00 h 0 W/m 0,0 km/h (0 Bft)
02.09.2018 05:00 11,3 C 97 % 1019,6 hPa 0,4 l/m N 0,00 h 0 W/m 0,0 km/h (0 Bft)
02.09.2018 06:00 11,2 C 97 % 1019,3 hPa 0,4 l/m N 0,00 h 0 W/m 0,0 km/h (0 Bft)
02.09.2018 07:00 11,2 C 98 % 1019,1 hPa 0,4 l/m O-SO 0,00 h 20 W/m 5,9 km/h (2 Bft)
02.09.2018 08:00 11,3 C 98 % 1019,1 hPa 0,0 l/m N 0,00 h 39 W/m 1,9 km/h (1 Bft)
02.09.2018 09:00 11,5 C 98 % 1019,2 hPa 0,0 l/m O-SO 0,00 h 83 W/m 5,2 km/h (1 Bft)
02.09.2018 10:00 12,2 C 98 % 1019,1 hPa 0,2 l/m N 0,00 h 136 W/m 1,2 km/h (1 Bft)
02.09.2018 11:00 12,7 C 95 % 1019,0 hPa 0,0 l/m O-SO 0,00 h 119 W/m 3,9 km/h (1 Bft)
02.09.2018 12:00 13,1 C 94 % 1018,7 hPa 0,0 l/m O 0,00 h 119 W/m 8,4 km/h (2 Bft)
02.09.2018 13:00 13,5 C 93 % 1018,3 hPa 0,0 l/m O 0,00 h 156 W/m 9,4 km/h (2 Bft)
02.09.2018 14:00 13,5 C 93 % 1018,0 hPa 0,0 l/m O-NO 0,00 h 90 W/m 9,4 km/h (2 Bft)
02.09.2018 15:00 13,3 C 94 % 1017,9 hPa 0,0 l/m NO 0,00 h 54 W/m 8,4 km/h (2 Bft)
02.09.2018 16:00 13,3 C 96 % 1017,7 hPa 0,0 l/m NO 0,00 h 73 W/m 3,2 km/h (1 Bft)
02.09.2018 17:00 13,7 C 94 % 1017,6 hPa 0,0 l/m NO 0,00 h 61 W/m 4,0 km/h (1 Bft)
02.09.2018 18:00 13,7 C 94 % 1017,4 hPa 0,0 l/m N 0,00 h 26 W/m 0,8 km/h (0 Bft)
02.09.2018 19:00 13,5 C 96 % 1017,1 hPa 0,0 l/m N 0,00 h 9 W/m 0,0 km/h (0 Bft)
02.09.2018 20:00 13,2 C 97 % 1017,0 hPa 0,0 l/m N 0,00 h 0 W/m 0,0 km/h (0 Bft)
02.09.2018 21:00 13,1 C 98 % 1017,2 hPa 0,0 l/m N 0,00 h 0 W/m 0,0 km/h (0 Bft)
02.09.2018 22:00 13,2 C 98 % 1017,1 hPa 0,0 l/m N 0,00 h 0 W/m 0,0 km/h (0 Bft)
02.09.2018 23:00 13,0 C 98 % 1016,9 hPa 0,0 l/m N 0,00 h 0 W/m 0,0 km/h (0 Bft)
Min-Datum _ 27.08.18 27.08.18 29.08.18 - - - - 27.08.18
_ Min-Zeit 02:50 15:45 16:05 - - - - 00:00
Minimum _ 7,1 C 43 % 1009,5 hPa - - - - 0,0 km/h (0 Bft)
Max-Datum _ 29.08.18 01.09.18 01.09.18 29.08.18 - 29.08.18 27.08.18 29.08.18
_ Max-Zeit 15:55 01:00 21:35 21:50 - 07:24 14:05 19:30
Maximum _ 29,3 C 100 % 1022,1 hPa 2,8 l/m - 0,15 h 1027 W/m 45,1 km/h
W (6 Bft)
Durchschnitt _ 16,0 C 83 % 1016,2 hPa #14,0 l/m NO #26:50 h 218 W/m 7,0 km/h (2 Bft)